Time;durP1;ratioP1;P1;durP2;ratioP2;P2;SDS_P1;SDS_P2;PMS_P1;PMS_P2;Temp;Humidity;BMP_temperature;BMP_pressure;BME280_temperature;BME280_humidity;BME280_pressure;Samples;Min_cycle;Max_cycle;Signal;HPM_P1;HPM_P2
2022/01/03 00:00:17;;;;;;;;;;;22.10;48.50;;;;;;5113890;28;19931;-48
2022/01/03 00:02:45;;;;;;;;;;;22.10;48.50;;;;;;5113795;28;19950;-55
2022/01/03 00:05:12;;;;;;;;;;;22.10;48.50;;;;;;5113002;28;19924;-54
2022/01/03 00:07:40;;;;;;;;;;;22.10;48.70;;;;;;5113765;28;19924;-51
2022/01/03 00:10:08;;;;;;;;;;;22.10;48.50;;;;;;5113830;28;19924;-48
2022/01/03 00:12:36;;;;;;;;;;;22.10;48.60;;;;;;5115333;28;19931;-48
2022/01/03 00:15:04;;;;;;;;;;;22.10;48.60;;;;;;5117482;28;19923;-48
2022/01/03 00:17:31;;;;;;;;;;;22.10;48.60;;;;;;5117076;28;19924;-54
2022/01/03 00:19:58;;;;;;;;;;;22.10;48.60;;;;;;5116347;27;19923;-55
2022/01/03 00:22:27;;;;;;;;;;;22.10;48.60;;;;;;5098775;28;20341;-56
2022/01/03 00:24:59;;;;;;;;;;;22.10;48.50;;;;;;5116947;28;20406;-57
2022/01/03 00:27:34;;;;;;;;;;;22.10;48.50;;;;;;5117177;28;19946;-55
2022/01/03 00:30:02;;;;;;;;;;;22.10;48.50;;;;;;5116881;28;19924;-50
2022/01/03 00:32:30;;;;;;;;;;;22.10;48.60;;;;;;5099213;28;20023;-55
2022/01/03 00:34:58;;;;;;;;;;;22.10;48.60;;;;;;5115606;28;20488;-57
2022/01/03 00:37:26;;;;;;;;;;;22.10;48.50;;;;;;5116991;28;19957;-57
2022/01/03 00:39:53;;;;;;;;;;;22.10;48.60;;;;;;5116931;28;19928;-54
2022/01/03 00:42:21;;;;;;;;;;;22.10;48.60;;;;;;5116530;28;19924;-52
2022/01/03 00:44:48;;;;;;;;;;;22.10;48.60;;;;;;5116726;28;19924;-56
2022/01/03 00:47:15;;;;;;;;;;;22.00;48.50;;;;;;5116808;28;19923;-53
2022/01/03 00:49:42;;;;;;;;;;;22.00;48.50;;;;;;5115480;28;19924;-50
2022/01/03 00:52:10;;;;;;;;;;;22.10;48.50;;;;;;5116240;28;19923;-55
2022/01/03 00:54:37;;;;;;;;;;;22.00;48.40;;;;;;5116363;28;20007;-57
2022/01/03 00:57:15;;;;;;;;;;;22.00;48.40;;;;;;5116303;28;19924;-56
2022/01/03 00:59:46;;;;;;;;;;;22.00;48.50;;;;;;5116537;28;19924;-54
2022/01/03 01:02:14;;;;;;;;;;;22.00;48.50;;;;;;5116181;28;19935;-56
2022/01/03 01:04:45;;;;;;;;;;;22.00;49.10;;;;;;5114897;27;19971;-57
2022/01/03 01:07:15;;;;;;;;;;;22.00;48.40;;;;;;5116430;28;19931;-55
2022/01/03 01:09:48;;;;;;;;;;;22.00;48.40;;;;;;5116079;28;19930;-56
2022/01/03 01:12:15;;;;;;;;;;;22.00;48.40;;;;;;5116022;28;19930;-54
2022/01/03 01:14:43;;;;;;;;;;;22.00;48.40;;;;;;5116159;28;19927;-49
2022/01/03 01:17:10;;;;;;;;;;;22.00;48.50;;;;;;5097914;28;19923;-55
2022/01/03 01:19:37;;;;;;;;;;;22.00;48.40;;;;;;5114595;28;19928;-53
2022/01/03 01:22:05;;;;;;;;;;;22.00;48.50;;;;;;5115876;28;19924;-57
2022/01/03 01:24:45;;;;;;;;;;;22.00;48.40;;;;;;5115041;28;19967;-51
2022/01/03 01:29:57;;;;;;;;;;;22.00;48.40;;;;;;5115937;28;20450;-48
2022/01/03 01:32:25;;;;;;;;;;;22.10;48.50;;;;;;5116137;28;19928;-52
2022/01/03 01:34:54;;;;;;;;;;;22.00;48.40;;;;;;5114695;28;19930;-51
2022/01/03 01:37:22;;;;;;;;;;;22.00;49.00;;;;;;5115487;28;19924;-57
2022/01/03 01:39:51;;;;;;;;;;;22.00;48.40;;;;;;5116343;28;19940;-53
2022/01/03 01:42:19;;;;;;;;;;;22.00;48.50;;;;;;5097362;28;19924;-49
2022/01/03 01:44:47;;;;;;;;;;;22.00;48.50;;;;;;5115265;28;19924;-49
2022/01/03 01:47:15;;;;;;;;;;;22.00;48.50;;;;;;5115334;28;19942;-53
2022/01/03 01:49:46;;;;;;;;;;;22.00;48.50;;;;;;5114405;27;19928;-57
2022/01/03 01:52:17;;;;;;;;;;;22.00;48.40;;;;;;5115079;28;19924;-50
2022/01/03 01:54:50;;;;;;;;;;;22.00;48.40;;;;;;5115561;28;20322;-55
2022/01/03 01:57:18;;;;;;;;;;;22.00;48.40;;;;;;5115156;28;20413;-50
2022/01/03 02:00:08;;;;;;;;;;;22.00;48.40;;;;;;5115098;28;20302;-51
2022/01/03 02:02:46;;;;;;;;;;;22.00;48.40;;;;;;5102271;28;20026;-57
2022/01/03 02:05:25;;;;;;;;;;;22.00;48.40;;;;;;5114400;27;19959;-51
2022/01/03 02:08:25;;;;;;;;;;;22.00;48.40;;;;;;5114933;28;19934;-53
2022/01/03 02:11:01;;;;;;;;;;;22.00;48.40;;;;;;5012906;28;19926;-53
2022/01/03 02:13:29;;;;;;;;;;;22.00;48.40;;;;;;5012649;28;19926;-56
2022/01/03 02:16:00;;;;;;;;;;;22.00;48.40;;;;;;5012386;28;19925;-55
2022/01/03 02:18:27;;;;;;;;;;;22.00;48.40;;;;;;5012502;28;19937;-57
2022/01/03 02:20:54;;;;;;;;;;;22.00;48.40;;;;;;5022339;28;19929;-51
2022/01/03 02:23:21;;;;;;;;;;;22.00;48.40;;;;;;5031733;28;20286;-50
2022/01/03 02:25:49;;;;;;;;;;;22.00;48.40;;;;;;5032111;28;19925;-50
2022/01/03 02:28:20;;;;;;;;;;;22.00;48.40;;;;;;5032305;28;20306;-50
2022/01/03 02:30:47;;;;;;;;;;;22.00;48.40;;;;;;5032027;28;19933;-51
2022/01/03 02:33:14;;;;;;;;;;;22.00;48.40;;;;;;5032168;28;19929;-57
2022/01/03 02:35:42;;;;;;;;;;;22.00;48.40;;;;;;5030340;28;19925;-56
2022/01/03 02:38:09;;;;;;;;;;;22.00;48.40;;;;;;5031919;28;20393;-53
2022/01/03 02:40:37;;;;;;;;;;;22.00;48.40;;;;;;5032012;28;19925;-57
2022/01/03 02:43:04;;;;;;;;;;;22.00;48.40;;;;;;5031797;28;19925;-49
2022/01/03 02:45:31;;;;;;;;;;;22.00;48.40;;;;;;5039358;28;19926;-50
2022/01/03 02:47:59;;;;;;;;;;;22.00;48.40;;;;;;5114309;28;20426;-57
2022/01/03 02:50:27;;;;;;;;;;;21.90;48.30;;;;;;5113162;28;20406;-48
2022/01/03 02:52:55;;;;;;;;;;;22.00;48.40;;;;;;5114364;28;19927;-58
2022/01/03 02:55:23;;;;;;;;;;;21.90;48.30;;;;;;5114212;28;19924;-58
2022/01/03 02:57:52;;;;;;;;;;;22.00;48.40;;;;;;5114203;28;19924;-57
2022/01/03 03:00:19;;;;;;;;;;;21.90;48.30;;;;;;5114178;28;19933;-51
2022/01/03 03:02:46;;;;;;;;;;;21.90;48.30;;;;;;5114060;28;19924;-53
2022/01/03 03:05:14;;;;;;;;;;;21.90;48.30;;;;;;5113239;28;19946;-53
2022/01/03 03:07:41;;;;;;;;;;;21.90;48.90;;;;;;5114416;28;19924;-48
2022/01/03 03:10:15;;;;;;;;;;;21.90;48.30;;;;;;5114374;28;19924;-58
2022/01/03 03:12:42;;;;;;;;;;;21.90;48.30;;;;;;5114088;28;19932;-57
2022/01/03 03:15:10;;;;;;;;;;;21.90;48.30;;;;;;5114215;28;19924;-58
2022/01/03 03:17:41;;;;;;;;;;;22.00;48.40;;;;;;5114248;28;19924;-55
2022/01/03 03:20:13;;;;;;;;;;;21.90;48.30;;;;;;5113454;28;19931;-52
2022/01/03 03:22:41;;;;;;;;;;;21.90;48.30;;;;;;5113393;28;19923;-52
2022/01/03 03:25:12;;;;;;;;;;;21.90;48.30;;;;;;5113928;28;19930;-56
2022/01/03 03:27:44;;;;;;;;;;;21.90;48.30;;;;;;5114232;28;20010;-50
2022/01/03 03:30:26;;;;;;;;;;;21.90;48.30;;;;;;5113945;28;19924;-53
2022/01/03 03:32:56;;;;;;;;;;;21.90;48.30;;;;;;5113867;28;19930;-52
2022/01/03 03:35:23;;;;;;;;;;;22.00;48.40;;;;;;5095258;28;19923;-59
2022/01/03 03:37:51;;;;;;;;;;;21.90;48.30;;;;;;5114349;28;19924;-50
2022/01/03 03:40:19;;;;;;;;;;;21.90;48.30;;;;;;5114098;28;19924;-54
2022/01/03 03:42:47;;;;;;;;;;;21.90;48.30;;;;;;5113665;28;19924;-52
2022/01/03 03:45:15;;;;;;;;;;;21.90;48.30;;;;;;5113950;28;20325;-51
2022/01/03 03:47:43;;;;;;;;;;;21.90;48.30;;;;;;5115963;28;19924;-54
2022/01/03 03:50:10;;;;;;;;;;;21.90;48.30;;;;;;5117931;28;19924;-51
2022/01/03 03:52:37;;;;;;;;;;;21.90;48.30;;;;;;5116184;27;19931;-58
2022/01/03 03:55:05;;;;;;;;;;;21.90;48.30;;;;;;5117527;28;19928;-55
2022/01/03 03:57:32;;;;;;;;;;;21.90;48.30;;;;;;5117493;28;19930;-58
2022/01/03 03:59:59;;;;;;;;;;;21.90;48.30;;;;;;5117770;28;19996;-52
2022/01/03 04:02:26;;;;;;;;;;;21.90;48.30;;;;;;5117704;28;19924;-54
2022/01/03 04:04:53;;;;;;;;;;;21.90;48.30;;;;;;5117595;28;20022;-56
2022/01/03 04:07:20;;;;;;;;;;;21.90;48.30;;;;;;5116354;27;19927;-57
2022/01/03 04:09:47;;;;;;;;;;;21.90;48.20;;;;;;5117269;28;19924;-50
2022/01/03 04:12:14;;;;;;;;;;;21.90;48.20;;;;;;5117211;28;19934;-50
2022/01/03 04:14:41;;;;;;;;;;;21.90;48.20;;;;;;5117037;28;19930;-55
2022/01/03 04:17:09;;;;;;;;;;;21.90;48.20;;;;;;5099107;28;20424;-56
2022/01/03 04:19:36;;;;;;;;;;;21.90;48.20;;;;;;5117061;28;19928;-56
2022/01/03 04:22:04;;;;;;;;;;;21.90;48.20;;;;;;5116187;27;19931;-57
2022/01/03 04:24:31;;;;;;;;;;;21.90;48.20;;;;;;5116951;28;19924;-57
2022/01/03 04:26:59;;;;;;;;;;;21.90;48.20;;;;;;5117251;28;19931;-54
2022/01/03 04:29:26;;;;;;;;;;;21.90;48.20;;;;;;5116885;28;19924;-51
2022/01/03 04:31:53;;;;;;;;;;;21.90;48.20;;;;;;5116824;28;19931;-50
2022/01/03 04:34:21;;;;;;;;;;;21.90;48.20;;;;;;5117107;28;19923;-53
2022/01/03 04:36:48;;;;;;;;;;;21.90;48.20;;;;;;5115848;27;19924;-54
2022/01/03 04:39:15;;;;;;;;;;;21.90;48.20;;;;;;5116679;28;19923;-57
2022/01/03 04:41:42;;;;;;;;;;;21.90;48.10;;;;;;5116947;28;19931;-57
2022/01/03 04:44:10;;;;;;;;;;;21.90;48.20;;;;;;5116365;28;19931;-57
2022/01/03 04:46:37;;;;;;;;;;;21.90;48.20;;;;;;5116506;28;19924;-52
2022/01/03 04:49:05;;;;;;;;;;;21.90;48.10;;;;;;5116478;28;19971;-49
2022/01/03 04:51:33;;;;;;;;;;;21.90;48.10;;;;;;5117594;27;19927;-48
2022/01/03 04:54:00;;;;;;;;;;;22.00;48.20;;;;;;5136784;27;19930;-52
2022/01/03 04:56:27;;;;;;;;;;;22.00;48.20;;;;;;5136913;27;19924;-54
2022/01/03 04:58:55;;;;;;;;;;;22.00;48.20;;;;;;5135804;27;19928;-52
2022/01/03 05:01:23;;;;;;;;;;;22.00;48.20;;;;;;5136796;27;19930;-52
2022/01/03 05:03:50;;;;;;;;;;;22.00;48.80;;;;;;5137000;27;19973;-50
2022/01/03 05:06:17;;;;;;;;;;;22.00;48.20;;;;;;5136059;27;19923;-50
2022/01/03 05:08:44;;;;;;;;;;;21.90;48.10;;;;;;5115327;28;19927;-55
2022/01/03 05:11:12;;;;;;;;;;;22.00;48.20;;;;;;5116082;28;20337;-57
2022/01/03 05:13:40;;;;;;;;;;;22.00;48.20;;;;;;5116334;28;19931;-56
2022/01/03 05:16:07;;;;;;;;;;;22.00;48.20;;;;;;5116066;28;19928;-53
2022/01/03 05:18:35;;;;;;;;;;;22.00;48.10;;;;;;5115928;28;19931;-54
2022/01/03 05:21:02;;;;;;;;;;;22.00;48.10;;;;;;5115885;28;19924;-51
2022/01/03 05:23:30;;;;;;;;;;;22.00;48.10;;;;;;5114531;27;19923;-51
2022/01/03 05:25:57;;;;;;;;;;;22.00;48.10;;;;;;5116122;28;19923;-51
2022/01/03 05:28:24;;;;;;;;;;;22.00;48.10;;;;;;5116619;28;19927;-52
2022/01/03 05:30:52;;;;;;;;;;;22.00;48.10;;;;;;5115716;28;19924;-51
2022/01/03 05:33:19;;;;;;;;;;;22.00;48.10;;;;;;5115661;28;19923;-54
2022/01/03 05:35:46;;;;;;;;;;;22.00;48.10;;;;;;5115580;28;20386;-56
2022/01/03 05:38:15;;;;;;;;;;;22.00;48.10;;;;;;5114426;28;19934;-55
2022/01/03 05:40:42;;;;;;;;;;;22.00;48.10;;;;;;5116033;28;19930;-57
2022/01/03 05:43:10;;;;;;;;;;;22.00;48.10;;;;;;5115931;28;19924;-56
2022/01/03 05:45:37;;;;;;;;;;;22.00;48.10;;;;;;5115762;28;20359;-54
2022/01/03 05:48:05;;;;;;;;;;;22.00;48.10;;;;;;5115636;28;19931;-55
2022/01/03 05:50:32;;;;;;;;;;;22.00;48.10;;;;;;5115647;28;19931;-51
2022/01/03 05:52:59;;;;;;;;;;;22.00;48.10;;;;;;5114255;28;19938;-51
2022/01/03 05:55:26;;;;;;;;;;;22.00;48.10;;;;;;5115515;28;19923;-49
2022/01/03 05:57:54;;;;;;;;;;;22.00;48.10;;;;;;5115159;28;19930;-57
2022/01/03 06:00:23;;;;;;;;;;;22.00;48.10;;;;;;5115328;28;19924;-47
2022/01/03 06:02:57;;;;;;;;;;;22.00;48.10;;;;;;5115451;28;19994;-49
2022/01/03 06:05:40;;;;;;;;;;;22.00;48.10;;;;;;5115274;28;19923;-55
2022/01/03 06:08:08;;;;;;;;;;;22.00;48.10;;;;;;5113862;27;19924;-50
2022/01/03 06:10:39;;;;;;;;;;;22.00;48.10;;;;;;5114848;28;19924;-51
2022/01/03 06:13:06;;;;;;;;;;;22.00;48.10;;;;;;5115221;28;19928;-52
2022/01/03 06:15:36;;;;;;;;;;;22.00;48.10;;;;;;5114972;28;19931;-56
2022/01/03 06:18:04;;;;;;;;;;;22.00;48.10;;;;;;5114777;28;19931;-53
2022/01/03 06:20:32;;;;;;;;;;;22.00;48.10;;;;;;5114959;28;19930;-56
2022/01/03 06:22:59;;;;;;;;;;;22.00;48.10;;;;;;5095258;28;19924;-51
2022/01/03 06:25:26;;;;;;;;;;;22.00;48.10;;;;;;5114545;28;19923;-51
2022/01/03 06:27:53;;;;;;;;;;;22.00;48.10;;;;;;5114910;28;19927;-58
2022/01/03 06:30:20;;;;;;;;;;;22.00;48.10;;;;;;5114538;28;20406;-56
2022/01/03 06:32:48;;;;;;;;;;;22.00;48.10;;;;;;5114823;28;19923;-55
2022/01/03 06:35:15;;;;;;;;;;;22.00;48.10;;;;;;5114814;28;19981;-52
2022/01/03 06:37:42;;;;;;;;;;;22.00;48.10;;;;;;5113446;28;19928;-53
2022/01/03 06:40:09;;;;;;;;;;;22.00;48.10;;;;;;5096445;28;19923;-53
2022/01/03 06:42:36;;;;;;;;;;;22.00;48.10;;;;;;5114336;28;19924;-50
2022/01/03 06:45:04;;;;;;;;;;;22.00;48.10;;;;;;5114599;28;19923;-57
2022/01/03 06:47:31;;;;;;;;;;;22.00;48.10;;;;;;5114286;28;19928;-51
2022/01/03 06:49:58;;;;;;;;;;;22.00;48.10;;;;;;5114234;28;19924;-50
2022/01/03 06:52:25;;;;;;;;;;;22.00;48.10;;;;;;5095668;28;19993;-50
2022/01/03 06:54:52;;;;;;;;;;;22.00;48.10;;;;;;5113769;28;19935;-51
2022/01/03 06:57:19;;;;;;;;;;;22.00;48.60;;;;;;5114478;28;19924;-53
2022/01/03 06:59:46;;;;;;;;;;;22.00;48.10;;;;;;5114141;28;19931;-50
2022/01/03 07:02:13;;;;;;;;;;;22.00;48.10;;;;;;5114464;28;19924;-56
2022/01/03 07:04:41;;;;;;;;;;;22.00;48.00;;;;;;5114614;28;19924;-58
2022/01/03 07:07:08;;;;;;;;;;;22.00;48.10;;;;;;5114395;28;19931;-54
2022/01/03 07:09:35;;;;;;;;;;;22.00;48.70;;;;;;5112795;28;20393;-54
2022/01/03 07:12:03;;;;;;;;;;;22.00;48.00;;;;;;5113962;28;19924;-55
2022/01/03 07:19:47;;;;;;;;;;;22.00;48.00;;;;;;5114059;28;19934;-56
2022/01/03 07:22:14;;;;;;;;;;;22.00;48.10;;;;;;5114886;28;19924;-56
2022/01/03 07:24:41;;;;;;;;;;;22.00;48.00;;;;;;5117141;27;19927;-53
2022/01/03 07:27:10;;;;;;;;;;;22.00;48.10;;;;;;5118093;28;19924;-51
2022/01/03 07:29:38;;;;;;;;;;;22.00;48.00;;;;;;5118034;28;19923;-51
2022/01/03 07:32:05;;;;;;;;;;;22.00;48.00;;;;;;5118224;28;19934;-51
2022/01/03 07:34:33;;;;;;;;;;;22.00;48.00;;;;;;5117929;28;20018;-54
2022/01/03 07:37:01;;;;;;;;;;;22.00;48.00;;;;;;5117856;28;19924;-53
2022/01/03 07:39:31;;;;;;;;;;;22.00;48.00;;;;;;5116704;27;20390;-54
2022/01/03 07:41:59;;;;;;;;;;;22.00;48.00;;;;;;5118048;28;20011;-54
2022/01/03 07:44:26;;;;;;;;;;;22.00;47.90;;;;;;5117708;28;19928;-48
2022/01/03 07:46:54;;;;;;;;;;;22.00;47.90;;;;;;5118023;28;19927;-50
2022/01/03 07:49:22;;;;;;;;;;;22.00;47.90;;;;;;5118011;28;19946;-48
2022/01/03 07:51:49;;;;;;;;;;;22.00;47.90;;;;;;5117719;28;19924;-51
2022/01/03 07:54:16;;;;;;;;;;;22.00;47.90;;;;;;5116399;28;19927;-55
2022/01/03 07:56:44;;;;;;;;;;;22.00;47.90;;;;;;5117849;28;19924;-57
2022/01/03 07:59:11;;;;;;;;;;;22.00;47.90;;;;;;5117789;28;19924;-57
2022/01/03 08:01:40;;;;;;;;;;;22.00;47.90;;;;;;5117327;28;19938;-58
2022/01/03 08:04:08;;;;;;;;;;;22.00;47.90;;;;;;5117564;28;19931;-55
2022/01/03 08:06:45;;;;;;;;;;;22.00;47.90;;;;;;5117175;28;19923;-59
2022/01/03 08:09:12;;;;;;;;;;;22.00;47.90;;;;;;5116408;27;19924;-55
2022/01/03 08:11:39;;;;;;;;;;;22.00;47.80;;;;;;5117052;28;19963;-51
2022/01/03 08:14:06;;;;;;;;;;;22.00;47.80;;;;;;5117072;28;19924;-52
2022/01/03 08:16:33;;;;;;;;;;;22.00;47.80;;;;;;5117135;28;20414;-50
2022/01/03 08:19:01;;;;;;;;;;;22.00;47.80;;;;;;5116988;28;19931;-50
2022/01/03 08:21:28;;;;;;;;;;;22.10;47.80;;;;;;5116980;28;19971;-53
2022/01/03 08:23:55;;;;;;;;;;;22.10;47.80;;;;;;5115520;27;20457;-48
2022/01/03 08:26:22;;;;;;;;;;;22.10;47.80;;;;;;5117267;28;19923;-55
2022/01/03 08:28:50;;;;;;;;;;;22.10;47.80;;;;;;5116876;28;19932;-53
2022/01/03 08:31:17;;;;;;;;;;;22.10;47.70;;;;;;5116871;28;19930;-53
2022/01/03 08:33:44;;;;;;;;;;;22.10;47.70;;;;;;5116512;28;19924;-57
2022/01/03 08:36:11;;;;;;;;;;;22.10;47.70;;;;;;5117107;28;19924;-50
2022/01/03 08:38:39;;;;;;;;;;;22.10;47.70;;;;;;5115882;27;19923;-53
2022/01/03 08:41:06;;;;;;;;;;;22.10;47.70;;;;;;5116653;28;19927;-50
2022/01/03 08:43:33;;;;;;;;;;;22.10;47.60;;;;;;5116919;28;19953;-50
2022/01/03 08:46:01;;;;;;;;;;;22.10;47.60;;;;;;5116380;28;19923;-50
2022/01/03 08:48:28;;;;;;;;;;;22.10;47.50;;;;;;5116717;28;19953;-49
2022/01/03 08:50:55;;;;;;;;;;;22.20;47.60;;;;;;5116426;28;19935;-58
2022/01/03 08:53:26;;;;;;;;;;;22.20;47.60;;;;;;5116178;28;19924;-50
2022/01/03 08:55:54;;;;;;;;;;;22.20;47.60;;;;;;5115144;28;20023;-46
2022/01/03 08:58:22;;;;;;;;;;;22.20;47.60;;;;;;5116331;28;19931;-52
2022/01/03 09:00:50;;;;;;;;;;;22.20;47.60;;;;;;5116280;28;19930;-56
2022/01/03 09:03:18;;;;;;;;;;;22.20;47.50;;;;;;5116227;28;19959;-49
2022/01/03 09:05:45;;;;;;;;;;;22.20;47.50;;;;;;5116410;28;19928;-50
2022/01/03 09:08:13;;;;;;;;;;;22.20;47.50;;;;;;5115978;28;19930;-52
2022/01/03 09:10:40;;;;;;;;;;;22.20;47.50;;;;;;5114786;27;19930;-53
2022/01/03 09:13:07;;;;;;;;;;;22.20;47.40;;;;;;5116082;28;19972;-53
2022/01/03 09:15:36;;;;;;;;;;;22.20;47.40;;;;;;5116206;28;19928;-53
2022/01/03 09:18:09;;;;;;;;;;;22.20;47.40;;;;;;5116216;28;19928;-52
2022/01/03 09:20:36;;;;;;;;;;;22.20;47.40;;;;;;5116183;28;19934;-55
2022/01/03 09:23:11;;;;;;;;;;;22.30;47.50;;;;;;5115805;28;20303;-55
2022/01/03 09:30:52;;;;;;;;;;;22.30;47.30;;;;;;5115736;28;19957;-57
2022/01/03 09:33:19;;;;;;;;;;;22.30;47.30;;;;;;5116482;28;19924;-53
2022/01/03 09:35:51;;;;;;;;;;;22.40;47.30;;;;;;5115652;28;19930;-52
2022/01/03 09:38:18;;;;;;;;;;;22.40;47.30;;;;;;5115550;28;19930;-52
2022/01/03 09:40:45;;;;;;;;;;;22.40;47.20;;;;;;5096626;28;19931;-51
2022/01/03 09:43:16;;;;;;;;;;;22.40;47.20;;;;;;5115677;28;19928;-53
2022/01/03 09:45:46;;;;;;;;;;;22.40;47.20;;;;;;5114780;28;19946;-51
2022/01/03 09:48:15;;;;;;;;;;;22.40;47.10;;;;;;5115572;28;19924;-50
2022/01/03 09:50:43;;;;;;;;;;;22.40;47.10;;;;;;5115532;28;20265;-52
2022/01/03 09:53:11;;;;;;;;;;;22.40;47.10;;;;;;5115010;28;19931;-55
2022/01/03 09:55:39;;;;;;;;;;;22.40;47.10;;;;;;5114207;27;19946;-48
2022/01/03 09:58:06;;;;;;;;;;;22.50;47.80;;;;;;5115109;28;19923;-57
2022/01/03 10:00:34;;;;;;;;;;;22.50;47.10;;;;;;5115072;28;19938;-48
2022/01/03 10:03:01;;;;;;;;;;;22.50;47.10;;;;;;5115423;28;19928;-54
2022/01/03 10:05:29;;;;;;;;;;;22.50;47.10;;;;;;5097356;28;19930;-54
2022/01/03 10:07:56;;;;;;;;;;;22.50;47.10;;;;;;5114948;28;19931;-51
2022/01/03 10:10:24;;;;;;;;;;;22.50;47.00;;;;;;5113978;27;19992;-51
2022/01/03 10:12:52;;;;;;;;;;;22.50;47.00;;;;;;5114824;28;20010;-53
2022/01/03 10:15:21;;;;;;;;;;;22.50;47.00;;;;;;5115038;28;19931;-53
2022/01/03 10:17:47;;;;;;;;;;;22.50;47.00;;;;;;5115110;28;20322;-54
2022/01/03 10:20:16;;;;;;;;;;;22.50;47.00;;;;;;5114746;28;19931;-53
2022/01/03 10:22:43;;;;;;;;;;;22.50;47.00;;;;;;5114576;28;19927;-55
2022/01/03 10:25:15;;;;;;;;;;;22.50;47.20;;;;;;5113682;28;20287;-56
2022/01/03 10:27:48;;;;;;;;;;;22.50;47.00;;;;;;5114997;28;19928;-53
2022/01/03 10:30:33;;;;;;;;;;;22.60;47.00;;;;;;5114620;28;19930;-50
2022/01/03 10:33:03;;;;;;;;;;;22.60;47.00;;;;;;5114866;28;20280;-50
2022/01/03 10:35:43;;;;;;;;;;;22.60;47.00;;;;;;5114508;28;20368;-53
2022/01/03 10:38:10;;;;;;;;;;;22.60;47.00;;;;;;5114452;28;19928;-57
2022/01/03 10:40:38;;;;;;;;;;;22.60;47.00;;;;;;5113171;28;19924;-56
2022/01/03 10:43:12;;;;;;;;;;;22.60;46.90;;;;;;5114389;28;19971;-53
2022/01/03 10:45:40;;;;;;;;;;;22.60;47.00;;;;;;5114174;28;19949;-56
2022/01/03 10:48:26;;;;;;;;;;;22.60;46.90;;;;;;5114324;28;19924;-55
2022/01/03 10:50:55;;;;;;;;;;;22.60;46.90;;;;;;5114643;28;19924;-50
2022/01/03 10:53:34;;;;;;;;;;;22.70;46.90;;;;;;5114423;28;19924;-53
2022/01/03 10:56:20;;;;;;;;;;;22.70;46.90;;;;;;5112919;28;20470;-55
2022/01/03 10:59:03;;;;;;;;;;;22.70;46.90;;;;;;5114575;28;19924;-54
2022/01/03 11:01:33;;;;;;;;;;;22.70;46.90;;;;;;5114193;28;19924;-56
2022/01/03 11:04:02;;;;;;;;;;;22.70;46.80;;;;;;5114155;28;20014;-55
2022/01/03 11:11:43;;;;;;;;;;;22.70;46.80;;;;;;5112843;28;19931;-49
2022/01/03 11:14:31;;;;;;;;;;;22.70;46.80;;;;;;5114262;28;19971;-53
2022/01/03 11:16:58;;;;;;;;;;;22.70;46.80;;;;;;5114023;28;19923;-53
2022/01/03 11:19:35;;;;;;;;;;;22.80;46.80;;;;;;5114287;28;19930;-47
2022/01/03 11:22:03;;;;;;;;;;;22.80;46.80;;;;;;5113827;28;19923;-59
2022/01/03 11:24:30;;;;;;;;;;;22.80;46.80;;;;;;5113804;28;20332;-50
2022/01/03 11:26:58;;;;;;;;;;;22.80;46.80;;;;;;5112462;28;19931;-58
2022/01/03 11:29:31;;;;;;;;;;;22.80;46.80;;;;;;5113950;28;20379;-48
2022/01/03 11:32:00;;;;;;;;;;;22.80;46.80;;;;;;5113918;28;19959;-59
2022/01/03 11:34:28;;;;;;;;;;;22.80;46.80;;;;;;5114191;28;19927;-56
2022/01/03 11:37:06;;;;;;;;;;;22.80;46.80;;;;;;5114205;28;19976;-56
2022/01/03 11:39:36;;;;;;;;;;;22.80;46.90;;;;;;5114144;28;19923;-57
2022/01/03 11:42:03;;;;;;;;;;;22.80;46.90;;;;;;5113241;28;19931;-57
2022/01/03 11:44:31;;;;;;;;;;;22.80;46.90;;;;;;5113683;28;19923;-51
2022/01/03 11:47:02;;;;;;;;;;;22.80;46.80;;;;;;5113644;28;19927;-56
2022/01/03 11:49:29;;;;;;;;;;;22.80;46.80;;;;;;5114033;28;20272;-53
2022/01/03 11:52:01;;;;;;;;;;;22.80;46.80;;;;;;5113544;28;19927;-52
2022/01/03 11:54:29;;;;;;;;;;;22.80;46.80;;;;;;5113733;28;19931;-50
2022/01/03 11:57:41;;;;;;;;;;;22.80;46.80;;;;;;5112453;28;19981;-49
2022/01/03 12:05:45;;;;;;;;;;;22.80;46.80;;;;;;5011331;28;19925;-49
2022/01/03 12:08:20;;;;;;;;;;;22.80;46.90;;;;;;5012359;28;19926;-48
2022/01/03 12:10:50;;;;;;;;;;;22.80;46.90;;;;;;5014612;28;19932;-59
2022/01/03 12:13:20;;;;;;;;;;;22.90;47.00;;;;;;5034531;28;19932;-54
2022/01/03 12:16:02;;;;;;;;;;;22.80;46.80;;;;;;5034395;28;19932;-52
2022/01/03 12:18:32;;;;;;;;;;;22.90;46.90;;;;;;5034555;28;20282;-52
2022/01/03 12:20:59;;;;;;;;;;;22.90;46.90;;;;;;5034461;28;19932;-48
2022/01/03 12:23:42;;;;;;;;;;;22.90;46.90;;;;;;5034137;28;19925;-57
2022/01/03 12:26:13;;;;;;;;;;;22.90;46.90;;;;;;5032856;28;19925;-48
2022/01/03 12:28:58;;;;;;;;;;;22.90;46.90;;;;;;5034346;28;20309;-55
2022/01/03 12:31:26;;;;;;;;;;;22.90;46.90;;;;;;5034306;28;19925;-55
2022/01/03 12:34:16;;;;;;;;;;;22.90;46.90;;;;;;5034252;28;19933;-55
2022/01/03 12:37:03;;;;;;;;;;;22.90;46.90;;;;;;5088329;28;19924;-49
2022/01/03 12:39:30;;;;;;;;;;;22.90;46.90;;;;;;5116669;28;19931;-51
2022/01/03 12:41:57;;;;;;;;;;;22.90;46.90;;;;;;5115354;28;19927;-48
2022/01/03 12:44:43;;;;;;;;;;;22.90;46.90;;;;;;5116527;28;20394;-57
2022/01/03 12:47:20;;;;;;;;;;;23.00;47.00;;;;;;5116524;28;20410;-52
2022/01/03 12:50:07;;;;;;;;;;;23.00;47.00;;;;;;5116543;28;19928;-55
2022/01/03 12:52:39;;;;;;;;;;;23.00;47.00;;;;;;5116338;28;19924;-57
2022/01/03 12:55:06;;;;;;;;;;;23.00;47.00;;;;;;5116819;28;19928;-49
2022/01/03 12:57:34;;;;;;;;;;;23.00;47.00;;;;;;5115075;28;19927;-57
2022/01/03 13:00:01;;;;;;;;;;;23.00;47.00;;;;;;5116376;28;19924;-59
2022/01/03 13:02:29;;;;;;;;;;;22.90;47.00;;;;;;5116221;28;19923;-57
2022/01/03 13:04:58;;;;;;;;;;;23.00;47.00;;;;;;5098307;28;20008;-54
2022/01/03 13:07:25;;;;;;;;;;;23.00;47.00;;;;;;5116217;28;19935;-54
2022/01/03 13:09:52;;;;;;;;;;;23.00;47.00;;;;;;5116171;28;19928;-52
2022/01/03 13:12:19;;;;;;;;;;;23.00;47.00;;;;;;5096783;28;19930;-57
2022/01/03 13:14:46;;;;;;;;;;;23.00;47.10;;;;;;5115933;28;19971;-50
2022/01/03 13:17:14;;;;;;;;;;;23.00;47.10;;;;;;5098004;28;19927;-48
2022/01/03 13:19:41;;;;;;;;;;;23.00;47.20;;;;;;5114866;28;19930;-53
2022/01/03 13:22:09;;;;;;;;;;;23.00;47.20;;;;;;5116070;28;19935;-51
2022/01/03 13:24:38;;;;;;;;;;;23.00;47.20;;;;;;5075272;28;20410;-55
2022/01/03 13:27:06;;;;;;;;;;;23.00;47.20;;;;;;5074099;28;19924;-52
2022/01/03 13:29:39;;;;;;;;;;;23.00;47.20;;;;;;5075191;28;19925;-52
2022/01/03 13:32:06;;;;;;;;;;;23.00;47.20;;;;;;5075133;28;20388;-50
2022/01/03 13:34:34;;;;;;;;;;;23.00;47.30;;;;;;5074206;28;19925;-56
2022/01/03 13:37:03;;;;;;;;;;;23.00;47.30;;;;;;5075278;28;20023;-56
2022/01/03 13:39:33;;;;;;;;;;;23.00;47.30;;;;;;5074977;28;19930;-58
2022/01/03 13:42:01;;;;;;;;;;;23.00;47.30;;;;;;5073799;28;19982;-56
2022/01/03 13:45:17;;;;;;;;;;;23.00;47.30;;;;;;5075076;28;20374;-56
2022/01/03 13:50:18;;;;;;;;;;;23.00;47.30;;;;;;5075015;28;19932;-56
2022/01/03 13:52:47;;;;;;;;;;;23.00;47.40;;;;;;5074875;28;19985;-56
2022/01/03 13:55:22;;;;;;;;;;;23.00;47.40;;;;;;5074645;28;20392;-58
2022/01/03 13:57:50;;;;;;;;;;;23.00;47.40;;;;;;5073696;28;19924;-58
2022/01/03 14:00:19;;;;;;;;;;;23.00;47.40;;;;;;5074522;28;19924;-53
2022/01/03 14:02:47;;;;;;;;;;;23.00;47.40;;;;;;5074847;28;20299;-54
2022/01/03 14:05:15;;;;;;;;;;;23.00;47.40;;;;;;5074350;28;20012;-56
2022/01/03 14:07:59;;;;;;;;;;;23.00;47.50;;;;;;5074388;28;19924;-52
2022/01/03 14:10:36;;;;;;;;;;;23.00;47.50;;;;;;5073257;28;19924;-48
2022/01/03 14:13:05;;;;;;;;;;;23.00;47.50;;;;;;5073025;28;19924;-53
2022/01/03 14:15:32;;;;;;;;;;;23.00;47.50;;;;;;5074421;28;19924;-53
2022/01/03 14:18:00;;;;;;;;;;;23.00;47.60;;;;;;5074530;28;20023;-49
2022/01/03 14:20:27;;;;;;;;;;;23.00;47.60;;;;;;5074165;28;19924;-53
2022/01/03 14:22:54;;;;;;;;;;;23.00;47.60;;;;;;5078554;28;19928;-50
2022/01/03 14:25:25;;;;;;;;;;;23.00;47.60;;;;;;5093411;28;19931;-47
2022/01/03 14:28:01;;;;;;;;;;;23.00;47.60;;;;;;5093109;28;19931;-52
2022/01/03 14:30:33;;;;;;;;;;;23.00;47.60;;;;;;5093310;28;21257;-52
2022/01/03 14:33:03;;;;;;;;;;;23.00;47.60;;;;;;5094215;28;19924;-55
2022/01/03 14:35:38;;;;;;;;;;;23.00;47.60;;;;;;5094240;28;19930;-54
2022/01/03 14:38:14;;;;;;;;;;;23.00;47.60;;;;;;5092957;28;19928;-48
2022/01/03 14:40:51;;;;;;;;;;;23.00;47.60;;;;;;5094199;28;19931;-50
2022/01/03 14:43:23;;;;;;;;;;;23.00;47.60;;;;;;5093116;28;19924;-48
2022/01/03 14:45:51;;;;;;;;;;;23.00;47.60;;;;;;5094231;28;19924;-53
2022/01/03 14:48:20;;;;;;;;;;;23.00;47.70;;;;;;5094251;28;19928;-49
2022/01/03 14:50:48;;;;;;;;;;;23.00;47.70;;;;;;5093979;28;19928;-49
2022/01/03 14:53:15;;;;;;;;;;;23.00;47.70;;;;;;5094096;28;19924;-54
2022/01/03 14:55:43;;;;;;;;;;;23.00;47.80;;;;;;5093028;28;20291;-54